createdAt,value
2019-05-25T00:01:37.006Z,11.60
2019-05-25T00:04:03.862Z,11.50
2019-05-25T00:06:30.704Z,11.50
2019-05-25T00:08:57.581Z,11.50
2019-05-25T00:11:24.330Z,11.50
2019-05-25T00:13:51.231Z,11.20
2019-05-25T00:16:18.042Z,11.20
2019-05-25T00:18:44.821Z,11.20
2019-05-25T00:21:13.969Z,11.20
2019-05-25T00:23:40.464Z,11.10
2019-05-25T00:26:07.214Z,11.00
2019-05-25T00:28:35.080Z,11.00
2019-05-25T00:31:01.893Z,11.00
2019-05-25T00:33:28.662Z,11.00
2019-05-25T00:35:55.765Z,10.90
2019-05-25T00:38:22.543Z,10.90
2019-05-25T00:40:49.464Z,10.90
2019-05-25T00:43:16.243Z,10.80
2019-05-25T00:45:43.002Z,10.70
2019-05-25T00:48:10.085Z,10.70
2019-05-25T00:50:36.958Z,10.60
2019-05-25T00:53:03.730Z,10.60
2019-05-25T00:55:31.612Z,10.60
2019-05-25T00:57:58.384Z,10.60
2019-05-25T01:00:25.076Z,10.60
2019-05-25T01:02:52.014Z,10.70
2019-05-25T01:05:18.789Z,10.70
2019-05-25T01:07:45.539Z,10.70
2019-05-25T01:10:12.719Z,10.70
2019-05-25T01:12:39.530Z,10.60
2019-05-25T01:15:07.039Z,10.40
2019-05-25T01:17:34.867Z,10.40
2019-05-25T01:20:02.065Z,10.30
2019-05-25T01:22:29.850Z,10.30
2019-05-25T01:24:56.595Z,10.30
2019-05-25T01:27:23.427Z,10.20
2019-05-25T01:29:50.211Z,10.20
2019-05-25T01:32:17.098Z,10.30
2019-05-25T01:34:43.915Z,10.20
2019-05-25T01:37:10.670Z,10.20
2019-05-25T01:39:37.420Z,10.10
2019-05-25T01:42:04.211Z,10.00
2019-05-25T01:44:30.971Z,10.10
2019-05-25T01:46:57.848Z,10.10
2019-05-25T01:49:24.728Z,10.00
2019-05-25T01:51:51.610Z,10.00
2019-05-25T01:54:18.517Z,9.90
2019-05-25T01:56:46.610Z,9.80
2019-05-25T01:59:13.306Z,9.70
2019-05-25T02:01:41.093Z,9.70
2019-05-25T02:04:07.873Z,9.70
2019-05-25T02:06:34.649Z,9.80
2019-05-25T02:09:01.428Z,9.70
2019-05-25T02:11:28.651Z,9.60
2019-05-25T02:13:56.419Z,9.60
2019-05-25T02:16:23.185Z,9.60
2019-05-25T02:18:49.781Z,9.60
2019-05-25T02:21:16.545Z,9.60
2019-05-25T02:23:43.389Z,9.60
2019-05-25T02:26:10.046Z,9.60
2019-05-25T02:28:36.808Z,9.50
2019-05-25T02:31:03.629Z,9.50
2019-05-25T02:33:30.499Z,9.40
2019-05-25T02:35:57.363Z,9.40
2019-05-25T02:38:24.335Z,9.30
2019-05-25T02:40:51.178Z,9.20
2019-05-25T02:43:17.920Z,9.20
2019-05-25T02:45:45.879Z,9.20
2019-05-25T02:48:12.932Z,9.20
2019-05-25T02:50:39.697Z,9.10
2019-05-25T02:53:06.495Z,9.00
2019-05-25T02:55:34.975Z,9.10
2019-05-25T02:58:02.129Z,9.00
2019-05-25T03:00:31.044Z,8.90
2019-05-25T03:02:58.228Z,9.00
2019-05-25T03:05:24.936Z,8.90
2019-05-25T03:07:52.883Z,8.90
2019-05-25T03:10:19.778Z,8.90
2019-05-25T03:12:46.880Z,8.90
2019-05-25T03:15:13.840Z,8.90
2019-05-25T03:17:40.782Z,8.90
2019-05-25T03:20:08.174Z,8.90
2019-05-25T03:22:35.005Z,8.90
2019-05-25T03:25:03.169Z,8.90
2019-05-25T03:27:30.016Z,8.90
2019-05-25T03:29:56.942Z,8.90
2019-05-25T03:32:23.967Z,8.90
2019-05-25T03:34:50.818Z,8.90
2019-05-25T03:37:17.728Z,8.80
2019-05-25T03:39:44.605Z,8.80
2019-05-25T03:42:11.392Z,8.90
2019-05-25T03:44:38.157Z,8.80
2019-05-25T03:47:04.973Z,8.80
2019-05-25T03:49:31.948Z,8.70
2019-05-25T03:51:58.733Z,8.70
2019-05-25T03:54:25.507Z,8.80
2019-05-25T03:56:52.373Z,8.80
2019-05-25T03:59:19.335Z,8.80
2019-05-25T04:01:46.421Z,8.90
2019-05-25T04:04:13.302Z,8.90
2019-05-25T04:06:40.102Z,9.00
2019-05-25T04:09:06.899Z,8.90
2019-05-25T04:11:33.740Z,8.90
2019-05-25T04:14:00.594Z,9.00
2019-05-25T04:16:27.596Z,9.10
2019-05-25T04:19:00.806Z,9.20
2019-05-25T04:21:27.688Z,9.30
2019-05-25T04:23:54.627Z,9.40
2019-05-25T04:26:22.856Z,9.50
2019-05-25T04:28:49.946Z,9.60
2019-05-25T04:31:16.888Z,9.60
2019-05-25T04:33:43.695Z,9.80
2019-05-25T04:36:10.471Z,10.00
2019-05-25T04:38:37.273Z,10.10
2019-05-25T04:41:04.184Z,10.30
2019-05-25T04:43:31.089Z,10.60
2019-05-25T04:45:57.828Z,10.80
2019-05-25T04:48:24.600Z,10.70
2019-05-25T04:50:51.543Z,10.90
2019-05-25T04:53:18.310Z,11.00
2019-05-25T04:55:45.112Z,11.10
2019-05-25T04:58:11.976Z,11.20
2019-05-25T05:00:38.907Z,11.30
2019-05-25T05:03:05.937Z,11.50
2019-05-25T05:05:32.778Z,11.70
2019-05-25T05:07:59.554Z,12.00
2019-05-25T05:10:26.519Z,12.10
2019-05-25T05:12:53.415Z,12.10
2019-05-25T05:15:20.252Z,12.30
2019-05-25T05:17:47.101Z,12.50
2019-05-25T05:20:15.219Z,12.70
2019-05-25T05:22:42.007Z,12.80
2019-05-25T05:25:10.471Z,12.80
2019-05-25T05:27:37.794Z,13.00
2019-05-25T05:30:06.839Z,13.10
2019-05-25T05:32:33.592Z,13.20
2019-05-25T05:35:00.516Z,13.50
2019-05-25T05:37:30.268Z,13.70
2019-05-25T05:39:58.075Z,13.80
2019-05-25T05:42:26.837Z,13.90
2019-05-25T05:44:55.090Z,14.00
2019-05-25T05:47:23.472Z,14.10
2019-05-25T05:49:52.635Z,14.10
2019-05-25T05:52:21.293Z,14.20
2019-05-25T05:54:51.092Z,14.40
2019-05-25T05:57:17.839Z,14.60
2019-05-25T05:59:44.940Z,14.50
2019-05-25T06:02:11.859Z,14.50
2019-05-25T06:04:38.708Z,14.70
2019-05-25T06:07:05.683Z,14.70
2019-05-25T06:09:32.465Z,14.70
2019-05-25T06:11:59.233Z,15.00
2019-05-25T06:14:26.071Z,15.20
2019-05-25T06:16:52.851Z,15.50
2019-05-25T06:19:19.749Z,15.90
2019-05-25T06:21:46.542Z,16.10
2019-05-25T06:24:13.335Z,16.30
2019-05-25T06:26:40.105Z,16.40
2019-05-25T06:29:07.037Z,16.50
2019-05-25T06:31:33.784Z,16.70
2019-05-25T06:34:00.516Z,16.80
2019-05-25T06:36:27.312Z,17.10
2019-05-25T06:38:54.164Z,17.20
2019-05-25T06:41:20.991Z,17.40
2019-05-25T06:43:47.993Z,17.60
2019-05-25T06:46:14.777Z,17.80
2019-05-25T06:48:41.757Z,18.00
2019-05-25T06:51:08.671Z,17.90
2019-05-25T06:53:35.642Z,17.90
2019-05-25T06:56:02.448Z,18.30
2019-05-25T06:58:29.355Z,18.50
2019-05-25T07:00:56.031Z,18.60
2019-05-25T07:03:24.101Z,18.60
2019-05-25T07:05:50.970Z,19.00
2019-05-25T07:08:17.827Z,18.90
2019-05-25T07:10:44.728Z,18.80
2019-05-25T07:13:12.638Z,19.10
2019-05-25T07:15:39.575Z,19.60
2019-05-25T07:18:06.304Z,19.90
2019-05-25T07:20:35.127Z,20.10
2019-05-25T07:23:01.951Z,19.90
2019-05-25T07:25:28.835Z,19.90
2019-05-25T07:27:59.545Z,20.00
2019-05-25T07:30:24.459Z,20.20
2019-05-25T07:32:51.396Z,20.10
2019-05-25T07:35:18.287Z,20.00
2019-05-25T07:37:45.078Z,20.00
2019-05-25T07:40:12.315Z,20.10
2019-05-25T07:42:39.192Z,20.30
2019-05-25T07:45:06.564Z,20.30
2019-05-25T07:47:34.854Z,20.40
2019-05-25T07:50:03.177Z,20.50
2019-05-25T07:52:29.930Z,20.70
2019-05-25T07:54:56.698Z,20.60
2019-05-25T07:57:27.949Z,20.80
2019-05-25T07:59:53.261Z,20.80
2019-05-25T08:02:20.328Z,20.80
2019-05-25T08:04:47.141Z,21.00
2019-05-25T08:07:14.023Z,21.00
2019-05-25T08:09:40.787Z,20.90
2019-05-25T08:12:07.710Z,21.00
2019-05-25T08:14:34.644Z,21.20
2019-05-25T08:17:01.602Z,21.60
2019-05-25T08:19:28.413Z,21.70
2019-05-25T08:21:55.280Z,21.40
2019-05-25T08:24:22.077Z,21.40
2019-05-25T08:26:48.859Z,21.50
2019-05-25T08:29:17.160Z,21.60
2019-05-25T08:31:44.178Z,21.90
2019-05-25T08:34:11.153Z,22.30
2019-05-25T08:36:38.164Z,22.40
2019-05-25T08:39:05.944Z,22.50
2019-05-25T08:41:32.869Z,22.60
2019-05-25T08:43:59.851Z,22.10
2019-05-25T08:46:26.794Z,22.40
2019-05-25T08:48:53.722Z,22.10
2019-05-25T08:51:20.558Z,22.40
2019-05-25T08:53:47.408Z,22.50
2019-05-25T08:56:14.333Z,22.80
2019-05-25T08:58:48.419Z,23.00
2019-05-25T09:01:09.966Z,22.80
2019-05-25T09:03:36.807Z,22.70
2019-05-25T09:06:03.791Z,22.40
2019-05-25T09:08:30.557Z,22.80
2019-05-25T09:10:57.447Z,22.80
2019-05-25T09:13:24.388Z,22.80
2019-05-25T09:15:51.271Z,22.70
2019-05-25T09:18:18.167Z,23.10
2019-05-25T09:20:45.057Z,23.50
2019-05-25T09:23:11.903Z,23.30
2019-05-25T09:25:39.733Z,23.30
2019-05-25T09:28:06.621Z,23.10
2019-05-25T09:30:33.476Z,23.50
2019-05-25T09:33:00.282Z,23.70
2019-05-25T09:35:27.156Z,24.00
2019-05-25T09:37:54.060Z,24.30
2019-05-25T09:40:21.161Z,24.30
2019-05-25T09:42:48.110Z,24.30
2019-05-25T09:45:15.021Z,24.50
2019-05-25T09:47:41.823Z,24.70
2019-05-25T09:50:09.355Z,23.90
2019-05-25T09:52:36.175Z,23.60
2019-05-25T09:55:07.226Z,23.70
2019-05-25T09:57:34.114Z,24.20
2019-05-25T10:00:00.873Z,23.70
2019-05-25T10:02:27.876Z,24.30
2019-05-25T10:04:54.858Z,24.60
2019-05-25T10:07:21.616Z,24.70
2019-05-25T10:09:48.492Z,24.70
2019-05-25T10:12:16.251Z,24.80
2019-05-25T10:14:43.242Z,24.20
2019-05-25T10:17:10.117Z,24.00
2019-05-25T10:19:37.006Z,23.40
2019-05-25T10:22:04.232Z,23.60
2019-05-25T10:24:31.068Z,23.70
2019-05-25T10:26:57.878Z,24.30
2019-05-25T10:29:36.509Z,24.40
2019-05-25T10:31:53.388Z,24.30
2019-05-25T10:34:21.356Z,24.30
2019-05-25T10:36:48.122Z,23.90
2019-05-25T10:39:14.949Z,24.40
2019-05-25T10:41:41.755Z,25.50
2019-05-25T10:44:08.535Z,25.20
2019-05-25T10:46:35.957Z,24.90
2019-05-25T10:49:02.858Z,25.40
2019-05-25T10:51:29.614Z,25.40
2019-05-25T10:53:56.554Z,25.60
2019-05-25T10:56:23.362Z,25.20
2019-05-25T10:58:50.305Z,24.80
2019-05-25T11:01:17.040Z,24.70
2019-05-25T11:03:45.099Z,24.40
2019-05-25T11:06:11.994Z,24.20
2019-05-25T11:08:38.771Z,24.10
2019-05-25T11:11:05.709Z,24.00
2019-05-25T11:13:32.485Z,24.20
2019-05-25T11:15:59.307Z,24.00
2019-05-25T11:18:26.196Z,24.10
2019-05-25T11:20:53.086Z,24.00
2019-05-25T11:23:19.866Z,23.70
2019-05-25T11:25:47.945Z,23.80
2019-05-25T11:28:14.729Z,24.30
2019-05-25T11:30:41.639Z,24.40
2019-05-25T11:33:08.459Z,24.80
2019-05-25T11:35:35.352Z,24.40
2019-05-25T11:38:02.051Z,24.10
2019-05-25T11:40:28.996Z,24.00
2019-05-25T11:42:55.991Z,23.80
2019-05-25T11:45:23.131Z,24.20
2019-05-25T11:47:50.012Z,24.50
2019-05-25T11:50:16.923Z,25.10
2019-05-25T11:52:43.878Z,25.40
2019-05-25T11:55:10.842Z,26.00
2019-05-25T11:57:37.818Z,26.00
2019-05-25T12:00:23.834Z,25.30
2019-05-25T12:02:38.839Z,25.10
2019-05-25T12:05:06.275Z,25.30
2019-05-25T12:07:33.319Z,25.60
2019-05-25T12:10:00.236Z,25.70
2019-05-25T12:12:28.112Z,25.80
2019-05-25T12:14:55.854Z,25.40
2019-05-25T12:17:22.813Z,25.80
2019-05-25T12:19:49.649Z,26.20
2019-05-25T12:22:16.632Z,26.40
2019-05-25T12:24:43.326Z,26.60
2019-05-25T12:27:10.315Z,25.80
2019-05-25T12:29:37.209Z,26.00
2019-05-25T12:32:04.655Z,26.10
2019-05-25T12:34:31.588Z,25.30
2019-05-25T12:36:58.473Z,25.60
2019-05-25T12:39:26.772Z,25.30
2019-05-25T12:41:53.747Z,25.50
2019-05-25T12:44:21.578Z,25.40
2019-05-25T12:46:48.376Z,25.50
2019-05-25T12:49:15.359Z,25.50
2019-05-25T12:51:42.176Z,25.10
2019-05-25T12:54:09.096Z,25.90
2019-05-25T12:56:36.122Z,26.60
2019-05-25T12:59:03.724Z,27.10
2019-05-25T13:01:30.729Z,26.50
2019-05-25T13:03:57.443Z,25.90
2019-05-25T13:06:24.317Z,26.10
2019-05-25T13:08:51.112Z,25.80
2019-05-25T13:11:18.074Z,26.50
2019-05-25T13:13:46.196Z,26.40
2019-05-25T13:16:13.259Z,26.10
2019-05-25T13:18:40.037Z,26.30
2019-05-25T13:21:06.875Z,26.60
2019-05-25T13:23:33.931Z,26.60
2019-05-25T13:26:01.061Z,25.70
2019-05-25T13:28:28.112Z,25.40
2019-05-25T13:31:09.003Z,25.60
2019-05-25T13:33:24.015Z,25.40
2019-05-25T13:35:52.466Z,25.00
2019-05-25T13:38:19.471Z,25.40
2019-05-25T13:40:46.355Z,25.20
2019-05-25T13:43:13.269Z,25.20
2019-05-25T13:45:40.076Z,25.60
2019-05-25T13:48:06.900Z,25.50
2019-05-25T13:50:33.758Z,25.20
2019-05-25T13:53:00.629Z,25.20
2019-05-25T13:55:27.537Z,25.20
2019-05-25T13:57:54.418Z,25.40
2019-05-25T14:00:21.358Z,25.20
2019-05-25T14:02:48.170Z,25.30
2019-05-25T14:05:16.579Z,25.10
2019-05-25T14:07:43.357Z,25.10
2019-05-25T14:10:10.287Z,24.90
2019-05-25T14:12:37.159Z,24.80
2019-05-25T14:15:07.913Z,24.80
2019-05-25T14:17:35.662Z,25.10
2019-05-25T14:20:04.328Z,25.10
2019-05-25T14:22:31.474Z,24.90
2019-05-25T14:24:58.373Z,24.80
2019-05-25T14:27:25.311Z,24.70
2019-05-25T14:29:52.235Z,24.60
2019-05-25T14:32:19.129Z,24.60
2019-05-25T14:34:46.078Z,24.50
2019-05-25T14:37:13.201Z,24.60
2019-05-25T14:39:39.912Z,24.70
2019-05-25T14:42:06.901Z,24.60
2019-05-25T14:44:33.728Z,24.60
2019-05-25T14:47:00.583Z,24.50
2019-05-25T14:49:27.309Z,24.30
2019-05-25T14:51:54.260Z,24.10
2019-05-25T14:54:21.207Z,24.00
2019-05-25T14:56:47.976Z,23.90
2019-05-25T14:59:14.897Z,23.70
2019-05-25T15:01:41.727Z,23.70
2019-05-25T15:04:08.615Z,23.70
2019-05-25T15:06:35.405Z,23.60
2019-05-25T15:09:03.290Z,23.60
2019-05-25T15:11:30.180Z,23.50
2019-05-25T15:13:57.075Z,23.30
2019-05-25T15:16:24.276Z,23.10
2019-05-25T15:18:51.162Z,22.90
2019-05-25T15:21:18.055Z,22.70
2019-05-25T15:23:44.921Z,22.40
2019-05-25T15:26:12.032Z,22.00
2019-05-25T15:28:38.936Z,21.70
2019-05-25T15:31:05.778Z,21.60
2019-05-25T15:33:32.642Z,21.30
2019-05-25T15:35:59.535Z,21.20
2019-05-25T15:38:26.341Z,21.10
2019-05-25T15:40:53.351Z,20.90
2019-05-25T15:43:20.379Z,20.80
2019-05-25T15:45:47.246Z,20.90
2019-05-25T15:48:14.205Z,20.70
2019-05-25T15:50:41.010Z,20.70
2019-05-25T15:53:09.006Z,20.70
2019-05-25T15:55:35.685Z,20.70
2019-05-25T15:58:02.698Z,20.70
2019-05-25T16:00:48.424Z,20.70
2019-05-25T16:03:16.235Z,20.70
2019-05-25T16:05:42.991Z,20.60
2019-05-25T16:08:11.800Z,20.60
2019-05-25T16:10:38.605Z,20.60
2019-05-25T16:13:05.440Z,20.60
2019-05-25T16:15:32.308Z,20.40
2019-05-25T16:17:59.431Z,20.50
2019-05-25T16:20:26.211Z,20.40
2019-05-25T16:22:53.120Z,20.40
2019-05-25T16:25:20.041Z,20.20
2019-05-25T16:27:46.913Z,20.00
2019-05-25T16:30:13.885Z,19.90
2019-05-25T16:33:09.828Z,19.60
2019-05-25T16:35:09.503Z,19.40
2019-05-25T16:37:36.884Z,19.20
2019-05-25T16:40:05.186Z,19.10
2019-05-25T16:42:32.030Z,19.10
2019-05-25T16:44:58.882Z,19.20
2019-05-25T16:47:25.734Z,19.30
2019-05-25T16:49:52.577Z,19.40
2019-05-25T16:52:19.461Z,19.40
2019-05-25T16:54:46.267Z,19.40
2019-05-25T16:57:13.057Z,19.40
2019-05-25T16:59:39.970Z,19.40
2019-05-25T17:02:06.782Z,19.60
2019-05-25T17:04:33.730Z,19.70
2019-05-25T17:07:00.560Z,19.70
2019-05-25T17:09:27.351Z,19.70
2019-05-25T17:11:54.104Z,19.60
2019-05-25T17:14:22.013Z,19.70
2019-05-25T17:16:50.859Z,19.70
2019-05-25T17:19:17.655Z,19.60
2019-05-25T17:21:44.483Z,19.50
2019-05-25T17:24:12.435Z,19.50
2019-05-25T17:26:40.266Z,19.40
2019-05-25T17:29:07.173Z,19.30
2019-05-25T17:31:34.981Z,19.30
2019-05-25T17:34:01.800Z,19.20
2019-05-25T17:36:28.831Z,18.90
2019-05-25T17:38:55.700Z,18.90
2019-05-25T17:41:22.407Z,18.90
2019-05-25T17:43:51.122Z,18.90
2019-05-25T17:46:18.143Z,18.70
2019-05-25T17:48:44.940Z,18.80
2019-05-25T17:51:11.826Z,18.80
2019-05-25T17:53:38.665Z,18.70
2019-05-25T17:56:05.548Z,18.60
2019-05-25T17:58:32.417Z,18.50
2019-05-25T18:00:59.261Z,18.30
2019-05-25T18:03:26.154Z,18.20
2019-05-25T18:05:53.104Z,18.20
2019-05-25T18:08:20.040Z,18.00
2019-05-25T18:10:53.149Z,17.90
2019-05-25T18:13:16.881Z,17.80
2019-05-25T18:15:44.665Z,17.70
2019-05-25T18:18:11.691Z,17.60
2019-05-25T18:20:38.645Z,17.50
2019-05-25T18:23:05.601Z,17.40
2019-05-25T18:25:32.400Z,17.30
2019-05-25T18:27:59.282Z,17.20
2019-05-25T18:30:26.315Z,17.20
2019-05-25T18:32:53.504Z,17.20
2019-05-25T18:35:20.511Z,17.10
2019-05-25T18:37:47.332Z,16.90
2019-05-25T18:40:14.602Z,16.90
2019-05-25T18:42:41.678Z,16.80
2019-05-25T18:45:08.836Z,16.70
2019-05-25T18:47:35.627Z,16.60
2019-05-25T18:50:05.074Z,16.60
2019-05-25T18:52:31.989Z,16.40
2019-05-25T18:54:58.785Z,16.20
2019-05-25T18:57:25.601Z,16.10
2019-05-25T18:59:52.404Z,16.10
2019-05-25T19:02:19.176Z,16.10
2019-05-25T19:04:58.238Z,16.00
2019-05-25T19:07:14.719Z,16.00
2019-05-25T19:09:41.631Z,15.90
2019-05-25T19:12:08.357Z,15.90
2019-05-25T19:14:35.141Z,15.90
2019-05-25T19:17:01.923Z,15.80
2019-05-25T19:19:28.779Z,15.80
2019-05-25T19:21:55.843Z,15.70
2019-05-25T19:24:22.797Z,15.50
2019-05-25T19:26:49.690Z,15.50
2019-05-25T19:29:18.541Z,15.50
2019-05-25T19:31:45.354Z,15.40
2019-05-25T19:34:12.071Z,15.40
2019-05-25T19:36:39.908Z,15.30
2019-05-25T19:39:07.168Z,15.20
2019-05-25T19:41:34.036Z,15.20
2019-05-25T19:44:01.208Z,15.10
2019-05-25T19:46:28.138Z,15.00
2019-05-25T19:48:55.107Z,15.00
2019-05-25T19:51:22.037Z,14.90
2019-05-25T19:53:48.785Z,14.80
2019-05-25T19:56:15.604Z,14.80
2019-05-25T19:58:42.573Z,14.80
2019-05-25T20:01:09.472Z,14.70
2019-05-25T20:03:36.575Z,14.80
2019-05-25T20:06:03.440Z,14.60
2019-05-25T20:08:30.338Z,14.50
2019-05-25T20:10:57.163Z,14.40
2019-05-25T20:13:24.044Z,14.30
2019-05-25T20:15:50.874Z,14.30
2019-05-25T20:18:18.719Z,14.40
2019-05-25T20:20:45.570Z,14.30
2019-05-25T20:23:12.415Z,14.30
2019-05-25T20:25:39.264Z,14.20
2019-05-25T20:28:06.158Z,14.10
2019-05-25T20:30:32.973Z,14.00
2019-05-25T20:33:01.030Z,14.00
2019-05-25T20:35:33.213Z,13.90
2019-05-25T20:37:56.347Z,13.90
2019-05-25T20:40:24.244Z,13.80
2019-05-25T20:42:51.014Z,13.70
2019-05-25T20:45:17.819Z,13.70
2019-05-25T20:47:44.704Z,13.70
2019-05-25T20:50:11.962Z,13.70
2019-05-25T20:52:38.780Z,13.70
2019-05-25T20:55:06.891Z,13.60
2019-05-25T20:57:35.522Z,13.50
2019-05-25T21:00:04.888Z,13.40
2019-05-25T21:02:33.516Z,13.40
2019-05-25T21:05:00.239Z,13.30
2019-05-25T21:07:27.118Z,13.30
2019-05-25T21:09:53.910Z,13.50
2019-05-25T21:12:20.931Z,13.50
2019-05-25T21:14:47.715Z,13.40
2019-05-25T21:17:14.538Z,13.50
2019-05-25T21:19:41.380Z,13.40
2019-05-25T21:22:08.179Z,13.40
2019-05-25T21:24:35.120Z,13.50
2019-05-25T21:27:02.602Z,13.40
2019-05-25T21:29:31.379Z,13.50
2019-05-25T21:31:58.187Z,13.40
2019-05-25T21:34:24.925Z,13.30
2019-05-25T21:36:51.912Z,13.30
2019-05-25T21:39:18.837Z,13.20
2019-05-25T21:41:45.647Z,13.30
2019-05-25T21:44:12.466Z,13.20
2019-05-25T21:46:39.235Z,13.30
2019-05-25T21:49:06.119Z,13.30
2019-05-25T21:51:32.975Z,13.10
2019-05-25T21:53:59.857Z,13.10
2019-05-25T21:56:26.757Z,13.10
2019-05-25T21:58:53.509Z,13.00
2019-05-25T22:01:20.623Z,13.00
2019-05-25T22:03:47.613Z,13.00
2019-05-25T22:06:23.790Z,13.00
2019-05-25T22:08:43.118Z,13.00
2019-05-25T22:11:10.160Z,13.00
2019-05-25T22:13:36.984Z,13.00
2019-05-25T22:16:03.764Z,12.90
2019-05-25T22:18:30.526Z,12.90
2019-05-25T22:20:57.379Z,13.00
2019-05-25T22:23:24.158Z,13.00
2019-05-25T22:25:50.930Z,13.00
2019-05-25T22:28:17.714Z,13.10
2019-05-25T22:30:44.540Z,13.10
2019-05-25T22:33:11.340Z,13.10
2019-05-25T22:35:38.217Z,13.00
2019-05-25T22:38:05.019Z,12.90
2019-05-25T22:40:31.914Z,12.90
2019-05-25T22:42:58.829Z,13.00
2019-05-25T22:45:25.669Z,12.90
2019-05-25T22:47:52.439Z,12.80
2019-05-25T22:50:19.320Z,12.80
2019-05-25T22:52:46.084Z,12.70
2019-05-25T22:55:13.033Z,12.60
2019-05-25T22:57:39.966Z,12.50
2019-05-25T23:00:08.888Z,12.50
2019-05-25T23:02:35.764Z,12.50
2019-05-25T23:05:07.111Z,12.40
2019-05-25T23:07:32.862Z,12.40
2019-05-25T23:09:59.620Z,12.40
2019-05-25T23:12:26.485Z,12.40
2019-05-25T23:14:53.290Z,12.30
2019-05-25T23:17:20.021Z,12.40
2019-05-25T23:19:46.797Z,12.30
2019-05-25T23:22:13.584Z,12.20
2019-05-25T23:24:40.561Z,12.10
2019-05-25T23:27:07.272Z,12.00
2019-05-25T23:29:34.041Z,12.00
2019-05-25T23:32:01.168Z,12.00
2019-05-25T23:34:27.968Z,11.80
2019-05-25T23:37:13.177Z,11.80
2019-05-25T23:39:25.207Z,11.80
2019-05-25T23:41:51.986Z,11.80
2019-05-25T23:44:18.907Z,11.70
2019-05-25T23:46:45.765Z,11.70
2019-05-25T23:49:12.495Z,11.70
2019-05-25T23:51:39.261Z,11.60
2019-05-25T23:54:06.389Z,11.60
2019-05-25T23:56:33.247Z,11.60
2019-05-25T23:59:00.224Z,11.60
